ACA842 CYYZ-EDDF
Flight info
| Callsign | ACA842 |
|---|---|
| Flight time | N/A |
| Altitude | 31000 |
| Route | SEDOG6 BOBSU DCT BAREE N647B RIKAL NATS NETKI DCT MORAG DCT NUCHU L607 KONAN UL607 SPI T180 NIVNU T847 IMCOM IMCOM2C |
| Aircraft | L101/H-SDFGHIRWXY/S |
Departure
| Time | N/A |
|---|---|
| Airport | Toronto Pearson International Airport (CYYZ) |
Arrival
| Time | 2026-05-08 08:27 |
|---|---|
| Airport | Frankfurt Main Airport (EDDF) |
| Time | Latitude | Longitude | Altitude | Speed | Heading |
|---|---|---|---|---|---|
| 2026-05-08 07:52 | 50.50547 | 5.68388 | 31096 ft | 493 kts | 108° |
| 2026-05-08 07:53 | 50.48581 | 5.78684 | 31084 ft | 493 kts | 108° |
| 2026-05-08 07:53 | 50.46630 | 5.88984 | 31086 ft | 493 kts | 108° |
| 2026-05-08 07:54 | 50.44685 | 5.99297 | 31085 ft | 493 kts | 108° |
| 2026-05-08 07:54 | 50.42727 | 6.09598 | 31084 ft | 494 kts | 108° |
| 2026-05-08 07:55 | 50.40781 | 6.19924 | 31087 ft | 494 kts | 108° |
| 2026-05-08 07:55 | 50.38813 | 6.30247 | 31089 ft | 494 kts | 108° |
| 2026-05-08 07:56 | 50.36858 | 6.40568 | 31079 ft | 495 kts | 105° |
| 2026-05-08 07:56 | 50.35812 | 6.51144 | 30421 ft | 486 kts | 96° |
| 2026-05-08 07:56 | 50.35551 | 6.56417 | 29792 ft | 483 kts | 96° |
| 2026-05-08 07:57 | 50.35262 | 6.61652 | 29122 ft | 482 kts | 97° |
| 2026-05-08 07:57 | 50.34922 | 6.66869 | 28387 ft | 482 kts | 97° |
| 2026-05-08 07:57 | 50.34554 | 6.72043 | 27297 ft | 473 kts | 97° |
| 2026-05-08 07:57 | 50.34211 | 6.77120 | 26238 ft | 466 kts | 97° |
| 2026-05-08 07:58 | 50.33876 | 6.82125 | 25238 ft | 458 kts | 96° |
| 2026-05-08 07:58 | 50.33796 | 6.87051 | 24252 ft | 451 kts | 84° |
| 2026-05-08 07:58 | 50.34411 | 6.91745 | 23368 ft | 440 kts | 79° |
| 2026-05-08 07:58 | 50.34652 | 6.96463 | 22370 ft | 432 kts | 94° |
| 2026-05-08 07:59 | 50.34120 | 7.01020 | 21442 ft | 423 kts | 110° |
| 2026-05-08 07:59 | 50.32869 | 7.05111 | 20545 ft | 414 kts | 126° |
| 2026-05-08 07:59 | 50.31028 | 7.08594 | 19684 ft | 408 kts | 136° |
| 2026-05-08 07:59 | 50.28946 | 7.11572 | 18855 ft | 403 kts | 142° |
| 2026-05-08 08:00 | 50.26769 | 7.14289 | 17958 ft | 398 kts | 144° |
| 2026-05-08 08:00 | 50.24659 | 7.16957 | 17031 ft | 394 kts | 138° |
| 2026-05-08 08:00 | 50.22873 | 7.20165 | 16097 ft | 390 kts | 124° |
| 2026-05-08 08:00 | 50.21601 | 7.23862 | 15227 ft | 385 kts | 114° |
| 2026-05-08 08:01 | 50.20685 | 7.27765 | 14384 ft | 381 kts | 109° |
| 2026-05-08 08:01 | 50.19876 | 7.31670 | 13505 ft | 375 kts | 109° |
| 2026-05-08 08:01 | 50.19016 | 7.35476 | 12878 ft | 367 kts | 111° |
| 2026-05-08 08:01 | 50.18148 | 7.39212 | 12500 ft | 366 kts | 111° |
| 2026-05-08 08:02 | 50.17269 | 7.42932 | 12122 ft | 365 kts | 111° |
| 2026-05-08 08:02 | 50.16385 | 7.46622 | 11741 ft | 362 kts | 111° |
| 2026-05-08 08:02 | 50.15501 | 7.50288 | 11412 ft | 359 kts | 112° |
| 2026-05-08 08:02 | 50.14625 | 7.53915 | 11248 ft | 358 kts | 112° |
| 2026-05-08 08:03 | 50.13751 | 7.57537 | 11169 ft | 356 kts | 112° |
| 2026-05-08 08:03 | 50.12894 | 7.61101 | 11129 ft | 344 kts | 112° |
| 2026-05-08 08:03 | 50.12060 | 7.64577 | 11134 ft | 341 kts | 112° |
| 2026-05-08 08:03 | 50.11232 | 7.68020 | 11121 ft | 339 kts | 112° |
| 2026-05-08 08:04 | 50.10437 | 7.71483 | 11125 ft | 339 kts | 109° |
| 2026-05-08 08:04 | 50.09738 | 7.75002 | 11125 ft | 340 kts | 107° |
| 2026-05-08 08:04 | 50.09094 | 7.78547 | 11121 ft | 340 kts | 107° |
| 2026-05-08 08:04 | 50.08462 | 7.82084 | 11124 ft | 339 kts | 107° |
| 2026-05-08 08:05 | 50.07980 | 7.85682 | 11101 ft | 341 kts | 95° |
| 2026-05-08 08:05 | 50.08129 | 7.89348 | 11101 ft | 341 kts | 78° |
| 2026-05-08 08:05 | 50.08868 | 7.92868 | 11130 ft | 342 kts | 67° |
| 2026-05-08 08:05 | 50.09905 | 7.96196 | 11045 ft | 344 kts | 63° |
| 2026-05-08 08:06 | 50.10991 | 7.99433 | 10780 ft | 327 kts | 63° |
| 2026-05-08 08:06 | 50.11943 | 8.02550 | 10535 ft | 310 kts | 67° |
| 2026-05-08 08:06 | 50.12748 | 8.05599 | 10314 ft | 299 kts | 70° |
| 2026-05-08 08:06 | 50.13470 | 8.08637 | 10072 ft | 299 kts | 71° |
| 2026-05-08 08:07 | 50.14165 | 8.11680 | 9808 ft | 298 kts | 71° |
| 2026-05-08 08:07 | 50.14863 | 8.14710 | 9541 ft | 296 kts | 71° |
| 2026-05-08 08:07 | 50.15574 | 8.17722 | 9274 ft | 295 kts | 70° |
| 2026-05-08 08:07 | 50.16290 | 8.20698 | 9006 ft | 293 kts | 70° |
| 2026-05-08 08:08 | 50.17011 | 8.23662 | 8741 ft | 291 kts | 69° |
| 2026-05-08 08:08 | 50.17719 | 8.26571 | 8490 ft | 290 kts | 69° |
| 2026-05-08 08:08 | 50.18430 | 8.29499 | 8234 ft | 288 kts | 69° |
| 2026-05-08 08:08 | 50.19133 | 8.32428 | 7974 ft | 287 kts | 72° |
| 2026-05-08 08:09 | 50.19431 | 8.35488 | 7658 ft | 285 kts | 94° |
| 2026-05-08 08:09 | 50.18968 | 8.38447 | 7397 ft | 280 kts | 117° |
| 2026-05-08 08:09 | 50.17821 | 8.40841 | 7248 ft | 277 kts | 141° |
| 2026-05-08 08:09 | 50.16184 | 8.42388 | 7197 ft | 275 kts | 159° |
| 2026-05-08 08:10 | 50.14339 | 8.43084 | 7159 ft | 273 kts | 180° |
| 2026-05-08 08:10 | 50.12483 | 8.42611 | 7154 ft | 270 kts | 202° |
| 2026-05-08 08:10 | 50.10886 | 8.41110 | 7140 ft | 269 kts | 223° |
| 2026-05-08 08:10 | 50.09713 | 8.38852 | 7144 ft | 269 kts | 240° |
| 2026-05-08 08:11 | 50.08925 | 8.36202 | 7145 ft | 270 kts | 250° |
| 2026-05-08 08:11 | 50.08350 | 8.33420 | 7141 ft | 270 kts | 254° |
| 2026-05-08 08:11 | 50.07830 | 8.30609 | 7142 ft | 270 kts | 253° |
| 2026-05-08 08:11 | 50.07279 | 8.27821 | 7138 ft | 269 kts | 252° |
| 2026-05-08 08:12 | 50.06669 | 8.25056 | 7137 ft | 270 kts | 250° |
| 2026-05-08 08:12 | 50.06015 | 8.22311 | 7139 ft | 271 kts | 249° |
| 2026-05-08 08:12 | 50.05337 | 8.19577 | 7140 ft | 272 kts | 248° |
| 2026-05-08 08:12 | 50.04645 | 8.16817 | 6866 ft | 274 kts | 248° |
| 2026-05-08 08:13 | 50.03958 | 8.14059 | 6467 ft | 271 kts | 249° |
| 2026-05-08 08:13 | 50.03284 | 8.11328 | 6068 ft | 270 kts | 249° |
| 2026-05-08 08:13 | 50.02618 | 8.08609 | 5685 ft | 269 kts | 249° |
| 2026-05-08 08:13 | 50.01954 | 8.05885 | 5292 ft | 269 kts | 249° |
| 2026-05-08 08:14 | 50.01295 | 8.03176 | 4912 ft | 268 kts | 249° |
| 2026-05-08 08:14 | 50.00634 | 8.00470 | 4517 ft | 267 kts | 249° |
| 2026-05-08 08:14 | 49.99974 | 7.97772 | 4236 ft | 265 kts | 249° |
| 2026-05-08 08:14 | 49.99316 | 7.95093 | 4078 ft | 266 kts | 249° |
| 2026-05-08 08:15 | 49.98654 | 7.92397 | 4029 ft | 267 kts | 249° |
| 2026-05-08 08:15 | 49.97991 | 7.89702 | 4002 ft | 267 kts | 249° |
| 2026-05-08 08:15 | 49.97329 | 7.87010 | 3997 ft | 267 kts | 249° |
| 2026-05-08 08:15 | 49.96666 | 7.84315 | 3983 ft | 267 kts | 249° |
| 2026-05-08 08:16 | 49.96002 | 7.81625 | 3981 ft | 267 kts | 249° |
| 2026-05-08 08:16 | 49.95295 | 7.78959 | 3961 ft | 267 kts | 240° |
| 2026-05-08 08:16 | 49.94125 | 7.76862 | 3920 ft | 248 kts | 214° |
| 2026-05-08 08:16 | 49.92641 | 7.75872 | 4027 ft | 225 kts | 188° |
| 2026-05-08 08:17 | 49.91107 | 7.76035 | 3989 ft | 220 kts | 160° |
| 2026-05-08 08:17 | 49.89837 | 7.77279 | 4148 ft | 217 kts | 133° |
| 2026-05-08 08:17 | 49.89103 | 7.79299 | 4332 ft | 217 kts | 106° |
| 2026-05-08 08:17 | 49.88853 | 7.81608 | 4557 ft | 218 kts | 95° |
| 2026-05-08 08:18 | 49.88774 | 7.83964 | 4730 ft | 220 kts | 90° |
| 2026-05-08 08:18 | 49.88901 | 7.86318 | 4884 ft | 221 kts | 82° |
| 2026-05-08 08:18 | 49.89167 | 7.88667 | 4954 ft | 222 kts | 78° |
| 2026-05-08 08:18 | 49.89542 | 7.90991 | 4966 ft | 221 kts | 74° |
| 2026-05-08 08:19 | 49.90008 | 7.93268 | 4979 ft | 221 kts | 71° |
| 2026-05-08 08:19 | 49.90530 | 7.95511 | 4985 ft | 222 kts | 70° |
| 2026-05-08 08:19 | 49.91080 | 7.97749 | 4985 ft | 221 kts | 69° |
| 2026-05-08 08:19 | 49.91639 | 7.99976 | 4984 ft | 222 kts | 68° |
| 2026-05-08 08:20 | 49.92267 | 8.02157 | 4992 ft | 222 kts | 66° |
| 2026-05-08 08:20 | 49.92854 | 8.04386 | 4992 ft | 223 kts | 70° |
| 2026-05-08 08:20 | 49.93384 | 8.06646 | 5015 ft | 222 kts | 70° |
| 2026-05-08 08:20 | 49.93919 | 8.08906 | 5061 ft | 224 kts | 70° |
| 2026-05-08 08:21 | 49.94454 | 8.11125 | 4987 ft | 216 kts | 70° |
| 2026-05-08 08:21 | 49.94977 | 8.13299 | 4981 ft | 213 kts | 70° |
| 2026-05-08 08:21 | 49.95484 | 8.15411 | 4951 ft | 206 kts | 70° |
| 2026-05-08 08:21 | 49.95982 | 8.17482 | 4729 ft | 204 kts | 70° |
| 2026-05-08 08:22 | 49.96471 | 8.19520 | 4504 ft | 199 kts | 70° |
| 2026-05-08 08:22 | 49.96955 | 8.21538 | 4271 ft | 199 kts | 70° |
| 2026-05-08 08:22 | 49.97431 | 8.23521 | 4017 ft | 198 kts | 69° |
| 2026-05-08 08:22 | 49.97917 | 8.25546 | 3761 ft | 197 kts | 69° |
| 2026-05-08 08:23 | 49.98383 | 8.27492 | 3586 ft | 190 kts | 69° |
| 2026-05-08 08:23 | 49.98827 | 8.29346 | 3275 ft | 175 kts | 69° |
| 2026-05-08 08:23 | 49.99242 | 8.31080 | 3026 ft | 171 kts | 69° |
| 2026-05-08 08:23 | 49.99656 | 8.32807 | 2802 ft | 171 kts | 69° |
| 2026-05-08 08:24 | 50.00066 | 8.34518 | 2540 ft | 165 kts | 69° |
| 2026-05-08 08:24 | 50.00457 | 8.36154 | 2309 ft | 158 kts | 70° |
| 2026-05-08 08:24 | 50.00836 | 8.37740 | 2097 ft | 155 kts | 70° |
| 2026-05-08 08:24 | 50.01205 | 8.39283 | 1847 ft | 150 kts | 70° |
| 2026-05-08 08:25 | 50.01570 | 8.40804 | 1649 ft | 151 kts | 70° |
| 2026-05-08 08:25 | 50.01939 | 8.42336 | 1437 ft | 151 kts | 69° |
| 2026-05-08 08:25 | 50.02302 | 8.43859 | 1176 ft | 150 kts | 70° |
| 2026-05-08 08:25 | 50.02666 | 8.45376 | 984 ft | 149 kts | 69° |
| 2026-05-08 08:26 | 50.03028 | 8.46890 | 749 ft | 149 kts | 70° |
| 2026-05-08 08:26 | 50.03390 | 8.48397 | 549 ft | 149 kts | 69° |
| 2026-05-08 08:26 | 50.03747 | 8.49896 | 359 ft | 144 kts | 69° |
| 2026-05-08 08:26 | 50.04052 | 8.51164 | 360 ft | 101 kts | 67° |
| 2026-05-08 08:27 | 50.04237 | 8.51974 | 366 ft | 51 kts | 85° |
| 2026-05-08 08:27 | 50.04211 | 8.52377 | 368 ft | 29 kts | 99° |
| 2026-05-08 08:27 | 50.04191 | 8.52611 | 363 ft | 21 kts | 87° |
| 2026-05-08 08:27 | 50.04234 | 8.52810 | 370 ft | 18 kts | 70° |
| 2026-05-08 08:28 | 50.04274 | 8.52977 | 375 ft | 16 kts | 70° |
| 2026-05-08 08:28 | 50.04312 | 8.53138 | 375 ft | 16 kts | 70° |
| 2026-05-08 08:28 | 50.04350 | 8.53300 | 378 ft | 16 kts | 70° |
| 2026-05-08 08:28 | 50.04388 | 8.53459 | 380 ft | 16 kts | 72° |
| 2026-05-08 08:29 | 50.04406 | 8.53630 | 382 ft | 16 kts | 86° |
| 2026-05-08 08:29 | 50.04417 | 8.53828 | 380 ft | 19 kts | 84° |
| 2026-05-08 08:29 | 50.04430 | 8.54021 | 382 ft | 19 kts | 84° |
| 2026-05-08 08:29 | 50.04444 | 8.54233 | 374 ft | 21 kts | 84° |
| 2026-05-08 08:30 | 50.04450 | 8.54430 | 356 ft | 14 kts | 99° |
| 2026-05-08 08:30 | 50.04432 | 8.54562 | 357 ft | 11 kts | 102° |
| 2026-05-08 08:30 | 50.04366 | 8.54713 | 364 ft | 8 kts | 133° |
| 2026-05-08 08:31 | 50.04319 | 8.54765 | 366 ft | 8 kts | 152° |
| 2026-05-08 08:31 | 50.04259 | 8.54803 | 364 ft | 11 kts | 159° |
| 2026-05-08 08:31 | 50.04176 | 8.54850 | 366 ft | 14 kts | 160° |
| 2026-05-08 08:31 | 50.04075 | 8.54905 | 366 ft | 16 kts | 159° |
| 2026-05-08 08:32 | 50.04022 | 8.55022 | 370 ft | 14 kts | 83° |
| 2026-05-08 08:32 | 50.04054 | 8.55161 | 371 ft | 13 kts | 69° |
| 2026-05-08 08:32 | 50.04090 | 8.55306 | 369 ft | 16 kts | 70° |
| 2026-05-08 08:32 | 50.04130 | 8.55491 | 366 ft | 20 kts | 70° |
| 2026-05-08 08:33 | 50.04183 | 8.55701 | 364 ft | 23 kts | 69° |
| 2026-05-08 08:33 | 50.04244 | 8.55951 | 363 ft | 26 kts | 69° |
| 2026-05-08 08:33 | 50.04310 | 8.56232 | 359 ft | 28 kts | 70° |
| 2026-05-08 08:33 | 50.04378 | 8.56519 | 359 ft | 28 kts | 70° |
| 2026-05-08 08:34 | 50.04439 | 8.56778 | 359 ft | 23 kts | 67° |
| 2026-05-08 08:34 | 50.04558 | 8.56893 | 356 ft | 17 kts | 14° |
| 2026-05-08 08:34 | 50.04658 | 8.56941 | 364 ft | 15 kts | 20° |
| 2026-05-08 08:34 | 50.04723 | 8.56971 | 364 ft | 6 kts | 338° |
| 2026-05-08 08:35 | 50.04743 | 8.56920 | 366 ft | 6 kts | 291° |
| 2026-05-08 08:35 | 50.04747 | 8.56906 | 366 ft | 0 kts | 292° |
| 2026-05-08 08:35 | 50.04749 | 8.56896 | 366 ft | 2 kts | 292° |
| 2026-05-08 08:35 | 50.04752 | 8.56886 | 365 ft | 0 kts | 291° |